createdAt,value
2023-04-23T00:03:09.637Z,32.90
2023-04-23T00:08:16.270Z,23.60
2023-04-23T00:13:20.398Z,24.10
2023-04-23T00:18:24.694Z,29.70
2023-04-23T00:23:29.071Z,28.80
2023-04-23T00:28:32.690Z,39.10
2023-04-23T00:33:38.100Z,33.60
2023-04-23T00:38:41.971Z,28.40
2023-04-23T00:43:46.201Z,30.00
2023-04-23T00:48:50.739Z,24.60
2023-04-23T00:53:54.462Z,25.70
2023-04-23T00:58:58.207Z,25.80
2023-04-23T01:04:02.197Z,30.50
2023-04-23T01:09:06.236Z,43.10
2023-04-23T01:14:10.643Z,25.90
2023-04-23T01:19:15.523Z,30.40
2023-04-23T01:24:19.206Z,31.70
2023-04-23T01:29:22.908Z,26.60
2023-04-23T01:34:30.275Z,29.40
2023-04-23T01:39:33.948Z,27.40
2023-04-23T01:44:37.726Z,28.40
2023-04-23T01:49:41.677Z,27.50
2023-04-23T01:54:45.475Z,26.70
2023-04-23T01:59:49.187Z,26.80
2023-04-23T02:04:53.848Z,23.70
2023-04-23T02:09:57.493Z,28.00
2023-04-23T02:15:01.236Z,28.10
2023-04-23T02:20:07.325Z,28.50
2023-04-23T02:25:11.613Z,28.50
2023-04-23T02:30:15.886Z,28.20
2023-04-23T02:35:20.659Z,26.50
2023-04-23T02:40:24.751Z,24.40
2023-04-23T02:45:28.407Z,31.30
2023-04-23T02:50:32.154Z,26.10
2023-04-23T02:55:36.407Z,31.10
2023-04-23T03:00:40.095Z,32.70
2023-04-23T03:05:44.004Z,24.80
2023-04-23T03:10:47.683Z,27.10
2023-04-23T03:15:52.624Z,32.20
2023-04-23T03:20:56.561Z,23.50
2023-04-23T03:26:00.490Z,29.10
2023-04-23T03:31:04.365Z,29.30
2023-04-23T03:36:08.665Z,34.20
2023-04-23T03:41:12.469Z,28.80
2023-04-23T03:46:16.257Z,24.30
2023-04-23T03:51:20.220Z,21.80
2023-04-23T03:56:27.137Z,31.70
2023-04-23T04:01:51.397Z,31.40
2023-04-23T04:06:55.092Z,29.20
2023-04-23T04:12:03.593Z,25.00
2023-04-23T04:17:07.683Z,35.30
2023-04-23T04:22:11.479Z,25.60
2023-04-23T04:27:16.249Z,21.40
2023-04-23T04:32:21.605Z,34.80
2023-04-23T04:37:25.856Z,23.90
2023-04-23T04:42:29.507Z,23.80
2023-04-23T04:47:33.209Z,28.30
2023-04-23T04:52:37.332Z,29.20
2023-04-23T04:57:40.923Z,26.80
2023-04-23T05:02:44.628Z,35.90
2023-04-23T05:07:48.382Z,24.60
2023-04-23T05:12:52.122Z,26.50
2023-04-23T05:17:56.089Z,31.80
2023-04-23T05:23:01.719Z,27.50
2023-04-23T05:28:07.686Z,27.90
2023-04-23T05:33:12.027Z,25.90
2023-04-23T05:38:15.575Z,24.40
2023-04-23T05:43:19.132Z,25.20
2023-04-23T05:48:22.704Z,29.80
2023-04-23T05:53:26.644Z,33.20
2023-04-23T05:58:30.203Z,37.70
2023-04-23T06:03:34.362Z,22.00
2023-04-23T06:08:39.070Z,29.00
2023-04-23T06:13:43.811Z,31.30
2023-04-23T06:18:47.657Z,27.10
2023-04-23T06:23:51.373Z,29.80
2023-04-23T06:28:54.987Z,40.50
2023-04-23T06:34:18.962Z,34.00
2023-04-23T06:39:22.617Z,18.40
2023-04-23T06:44:26.433Z,41.60
2023-04-23T06:49:29.986Z,26.50
2023-04-23T06:54:33.609Z,26.90
2023-04-23T06:59:37.302Z,27.70
2023-04-23T07:04:41.521Z,28.40
2023-04-23T07:09:45.701Z,25.70
2023-04-23T07:14:49.402Z,19.00
2023-04-23T07:19:53.048Z,20.00
2023-04-23T07:24:56.767Z,27.80
2023-04-23T07:30:01.482Z,27.20
2023-04-23T07:35:06.620Z,29.30
2023-04-23T07:40:11.416Z,28.20
2023-04-23T07:45:15.411Z,26.20
2023-04-23T07:50:19.150Z,36.60
2023-04-23T07:55:22.956Z,28.10
2023-04-23T08:00:26.733Z,18.50
2023-04-23T08:05:30.537Z,18.00
2023-04-23T08:10:34.453Z,19.50
2023-04-23T08:15:38.168Z,21.70
2023-04-23T08:20:42.346Z,33.10
2023-04-23T08:25:49.165Z,28.60
2023-04-23T08:30:52.721Z,23.20
2023-04-23T08:35:56.392Z,20.00
2023-04-23T08:41:02.393Z,15.80
2023-04-23T08:46:07.419Z,17.80
2023-04-23T08:51:13.226Z,11.50
2023-04-23T08:56:17.078Z,19.90
2023-04-23T09:01:20.895Z,47.50
2023-04-23T09:06:25.937Z,17.30
2023-04-23T09:11:31.330Z,16.20
2023-04-23T09:16:55.150Z,26.30
2023-04-23T09:22:01.596Z,19.30
2023-04-23T09:27:05.466Z,33.30
2023-04-23T09:32:10.015Z,20.00
2023-04-23T09:37:15.499Z,19.80
2023-04-23T09:42:23.087Z,21.80
2023-04-23T09:47:26.823Z,18.90
2023-04-23T09:52:33.714Z,16.10
2023-04-23T09:57:37.846Z,10.50
2023-04-23T10:02:47.724Z,21.40
2023-04-23T10:07:51.545Z,14.40
2023-04-23T10:12:56.612Z,19.50
2023-04-23T10:18:00.283Z,8.80
2023-04-23T10:23:05.208Z,26.50
2023-04-23T10:28:11.662Z,22.50
2023-04-23T10:33:29.031Z,10.30
2023-04-23T10:38:34.468Z,14.90
2023-04-23T10:43:38.192Z,21.50
2023-04-23T10:49:07.446Z,10.70
2023-04-23T10:54:13.790Z,10.50
2023-04-23T10:59:20.924Z,23.70
2023-04-23T11:04:25.952Z,5.00
2023-04-23T11:09:37.829Z,14.20
2023-04-23T11:14:48.042Z,11.40
2023-04-23T11:20:10.227Z,14.00
2023-04-23T11:25:19.183Z,11.40
2023-04-23T11:30:24.275Z,10.70
2023-04-23T11:35:29.687Z,10.50
2023-04-23T11:40:36.722Z,17.10
2023-04-23T11:45:40.319Z,7.50
2023-04-23T11:50:44.045Z,7.30
2023-04-23T11:55:50.451Z,11.20
2023-04-23T12:01:00.095Z,8.20
2023-04-23T12:06:03.862Z,12.80
2023-04-23T12:11:07.543Z,5.80
2023-04-23T12:16:11.358Z,19.10
2023-04-23T12:21:17.029Z,17.80
2023-04-23T12:26:20.781Z,9.80
2023-04-23T12:31:26.047Z,21.20
2023-04-23T12:36:30.871Z,8.40
2023-04-23T12:41:34.517Z,17.70
2023-04-23T12:46:38.162Z,9.50
2023-04-23T12:51:41.790Z,16.70
2023-04-23T12:56:45.737Z,19.50
2023-04-23T13:01:50.281Z,13.00
2023-04-23T13:06:54.343Z,7.40
2023-04-23T13:11:59.395Z,7.10
2023-04-23T13:17:02.999Z,8.70
2023-04-23T14:06:56.728Z,11.20
2023-04-23T14:12:03.789Z,6.50
2023-04-23T14:17:10.873Z,10.00
2023-04-23T14:22:18.006Z,16.50
2023-04-23T14:27:25.223Z,8.60
2023-04-23T14:32:32.379Z,13.60
2023-04-23T14:37:43.238Z,13.30
2023-04-23T14:42:50.569Z,25.80
2023-04-23T14:53:07.221Z,9.20
2023-04-23T14:58:14.254Z,8.80
2023-04-23T15:03:21.504Z,20.70
2023-04-23T15:13:51.702Z,15.30
2023-04-23T15:19:00.115Z,19.60
2023-04-23T15:24:08.020Z,7.10
2023-04-23T15:29:15.552Z,19.90
2023-04-23T15:34:22.655Z,9.10
2023-04-23T15:39:30.248Z,24.50
2023-04-23T15:44:37.291Z,9.10
2023-04-23T15:49:44.560Z,7.30
2023-04-23T15:54:51.627Z,12.00
2023-04-23T15:59:58.758Z,10.90
2023-04-23T16:05:06.292Z,8.30
2023-04-23T16:15:19.588Z,8.50
2023-04-23T16:20:29.127Z,19.20
2023-04-23T16:25:36.996Z,7.60
2023-04-23T16:30:44.235Z,13.50
2023-04-23T16:35:51.680Z,18.30
2023-04-23T16:46:04.609Z,4.80
2023-04-23T16:51:11.931Z,5.30
2023-04-23T16:56:19.414Z,11.10
2023-04-23T17:01:27.179Z,5.60
2023-04-23T17:11:40.383Z,14.50
2023-04-23T17:16:47.681Z,3.80
2023-04-23T17:21:54.765Z,7.40
2023-04-23T17:27:02.868Z,7.70
2023-04-23T17:32:10.544Z,9.70
2023-04-23T17:42:23.149Z,9.90
2023-04-23T17:47:30.188Z,7.70
2023-04-23T17:52:37.347Z,12.20
2023-04-23T17:57:44.332Z,9.60
2023-04-23T18:02:51.626Z,15.20
2023-04-23T18:07:58.878Z,14.40
2023-04-23T18:13:09.257Z,14.20
2023-04-23T18:18:16.292Z,13.40
2023-04-23T18:23:25.407Z,12.50
2023-04-23T18:28:32.990Z,10.50
2023-04-23T18:33:50.053Z,12.40
2023-04-23T18:38:57.158Z,11.30
2023-04-23T18:44:04.601Z,6.20
2023-04-23T18:49:47.877Z,7.40
2023-04-23T18:54:57.132Z,5.90
2023-04-23T19:00:04.699Z,15.50
2023-04-23T19:05:12.489Z,5.10
2023-04-23T19:15:25.598Z,12.60
2023-04-23T19:20:33.015Z,6.00
2023-04-23T19:25:40.771Z,5.50
2023-04-23T19:35:53.667Z,3.60
2023-04-23T19:41:01.282Z,9.30
2023-04-23T19:46:09.441Z,5.30
2023-04-23T19:51:16.779Z,7.10
2023-04-23T19:56:24.239Z,5.00
2023-04-23T20:01:32.309Z,11.30
2023-04-23T20:06:39.676Z,15.70
2023-04-23T20:11:47.609Z,4.30
2023-04-23T20:16:55.007Z,4.40
2023-04-23T20:22:02.804Z,8.50
2023-04-23T20:27:10.543Z,5.70
2023-04-23T20:32:18.510Z,4.60
2023-04-23T20:37:27.268Z,7.40
2023-04-23T20:42:34.625Z,5.70
2023-04-23T20:47:44.606Z,7.00
2023-04-23T20:52:51.963Z,5.10
2023-04-23T20:57:59.278Z,12.40
2023-04-23T21:03:09.700Z,7.60
2023-04-23T21:08:17.288Z,4.30
2023-04-23T21:13:26.103Z,5.70
2023-04-23T21:18:33.958Z,5.50
2023-04-23T21:23:44.352Z,35.60
2023-04-23T21:28:51.974Z,16.80
2023-04-23T21:39:05.448Z,7.40
2023-04-23T21:44:14.562Z,8.90
2023-04-23T21:49:22.588Z,7.60
2023-04-23T21:54:33.582Z,8.00
2023-04-23T21:59:43.341Z,7.80
2023-04-23T22:04:50.982Z,7.10
2023-04-23T22:10:00.528Z,8.20
2023-04-23T22:15:13.270Z,7.90
2023-04-23T22:20:23.990Z,11.70
2023-04-23T22:25:30.978Z,8.90
2023-04-23T22:30:38.061Z,11.20
2023-04-23T22:35:45.123Z,10.70
2023-04-23T22:40:52.228Z,9.10
2023-04-23T22:45:59.399Z,10.20
2023-04-23T22:51:07.255Z,11.80
2023-04-23T23:01:21.143Z,13.40
2023-04-23T23:06:28.349Z,11.10
2023-04-23T23:11:35.382Z,14.70
2023-04-23T23:16:42.484Z,10.90
2023-04-23T23:21:49.809Z,13.10
2023-04-23T23:26:57.009Z,10.40
2023-04-23T23:32:04.276Z,14.90
2023-04-23T23:37:11.397Z,9.40
2023-04-23T23:42:18.639Z,9.20
2023-04-23T23:47:25.940Z,11.20
2023-04-23T23:52:33.383Z,11.80
2023-04-23T23:57:41.324Z,16.80
